Terminal Aerodrome Forecast
Issued by NWS Corpus Christi, TX

Current Version | Previous Version | Text Only | Print | Product List | Glossary On
Versions: 1 2 3 4 5 6 7 8 9 10 11 12 13
000
FTUS44 KCRP 291100
TAFVCT
TAF
KVCT 291122Z 2912/3012 12006KT P6SM VCSH FEW025 BKN120
      TEMPO 2914/2918 5SM TSRA BKN018CB
     FM291800 13010KT P6SM VCTS BKN035CB BKN100
      TEMPO 2918/2922 5SM TSRA BKN025CB
     FM300200 13008KT P6SM SCT030 PROB30 3008/3011 SHRA=

USA.gov is the U.S. government's official web portal to all federal, state and local government web resources and services.